Weather at Shanghai Pudong International Airport

Public forecast

Using degrees Celsius for public forecast. Weather courtesy of forecast.io.

Current aviation weather report (METAR) for Shanghai Pudong International Airport

Retrieved 2022/08/15 07:00 UTC (14 minutes ago):

ZSPD 150700Z 18005MPS CAVOK 38/25 Q1002 NOSIG

Aviation forecast (TAF) for Shanghai Pudong International Airport

Forecast is more than 12 hours old.

Retrieved 2022/08/11 12:03 UTC (4 days ago):

TAF TAF ZSPD 110903Z 1112/1212 17006MPS 6000 BKN020 TX38/1206Z TN29/1120Z